Toledo, Illinois
Current Conditions -  °F | °C
As of 9:53 PM on Tuesday 21 Oct 2014 (Local Time) from KMTO Reporting Station
Clear Clear  
Wind Chill: 44°   Ceiling: Unl
Heat Index: 44°   Visibility: 10mi
Dew Point: 40°   Wind: 3mph
Humidity: 85%   Direction: 50°NE
Pressure: 30.21"   Gusts: NA
Location:  39.27°N, 88.24°W
Report Text: KMTO 220253Z AUTO 05003KT 10SM CLR 07/04 A3021 RMK AO2 SLP234 T00670044 51018
Loading
Personal Weather Stations






























Interactive Weather Map
Tropical Storm Tracking
New forecast layout! Learn more

10-Day Weather Forecast

Advertisements
Track Severe Weather on mobile